Time;durP1;ratioP1;P1;durP2;ratioP2;P2;SDS_P1;SDS_P2;PMS_P1;PMS_P2;Temp;Humidity;BMP_temperature;BMP_pressure;BME280_temperature;BME280_humidity;BME280_pressure;Samples;Min_cycle;Max_cycle;Signal;HPM_P1;HPM_P2
2023/08/13 00:03:31;;;;;;;;;;;17.90;92.20;;;16.74;87.03;100537.63;9849670;29;97385;-86
2023/08/13 00:08:35;;;;;;;;;;;17.80;91.90;;;16.71;87.66;100529.97;9851289;29;98337;-85
2023/08/13 00:13:39;;;;;;;;;;;17.80;92.50;;;16.66;88.17;100536.94;9871997;29;97136;-86
2023/08/13 00:18:42;;;;;;;;;;;17.80;92.70;;;16.66;88.24;100547.66;9846625;29;96798;-86
2023/08/13 00:23:46;;;;;;;;;;;17.70;92.40;;;16.60;87.91;100541.22;9859905;29;97519;-86
2023/08/13 00:28:49;;;;;;;;;;;17.70;92.60;;;16.55;88.45;100557.94;9875197;29;96814;-86
2023/08/13 00:33:53;;;;;;;;;;;17.60;93.10;;;16.45;89.46;100546.75;9850256;29;96898;-86
2023/08/13 00:38:56;;;;;;;;;;;17.50;93.80;;;16.31;90.33;100540.47;9858304;29;96944;-86
2023/08/13 00:44:00;;;;;;;;;;;17.40;94.30;;;16.23;90.80;100548.66;9862476;29;96619;-85
2023/08/13 00:49:04;;;;;;;;;;;17.30;95.00;;;16.16;92.12;100553.16;9853105;29;96978;-86
2023/08/13 00:54:08;;;;;;;;;;;17.30;95.30;;;16.11;92.18;100547.53;9861495;29;96792;-85
2023/08/13 00:59:12;;;;;;;;;;;17.20;95.50;;;16.09;92.23;100546.91;9884883;29;97580;-85
2023/08/13 01:04:15;;;;;;;;;;;17.20;95.90;;;16.08;92.46;100550.63;9860646;29;96724;-85
2023/08/13 01:09:37;;;;;;;;;;;17.20;95.40;;;16.15;92.01;100546.13;9858217;29;96678;-85
2023/08/13 01:14:44;;;;;;;;;;;17.20;95.40;;;16.16;91.70;100557.69;9877257;29;96648;-85
2023/08/13 01:19:48;;;;;;;;;;;17.20;95.30;;;16.06;92.46;100552.66;9899759;29;96783;-86
2023/08/13 01:24:52;;;;;;;;;;;17.20;96.30;;;16.00;92.87;100559.63;9873236;29;97839;-85
2023/08/13 01:30:21;;;;;;;;;;;17.10;96.30;;;15.92;93.00;100551.75;9906383;29;96845;-85
2023/08/13 01:35:25;;;;;;;;;;;17.10;96.70;;;15.87;93.75;100564.06;9905380;29;96822;-85
2023/08/13 01:40:29;;;;;;;;;;;17.00;97.80;;;15.78;94.37;100558.84;9893492;29;97749;-85
2023/08/13 01:45:32;;;;;;;;;;;16.90;97.60;;;15.78;94.67;100564.22;9905525;29;96653;-85
2023/08/13 01:50:40;;;;;;;;;;;16.80;97.70;;;15.81;94.84;100556.78;9886062;29;97707;-85
2023/08/13 01:55:44;;;;;;;;;;;16.90;97.60;;;15.81;94.48;100562.16;9899682;29;96775;-85
2023/08/13 02:00:47;;;;;;;;;;;16.90;98.00;;;15.79;94.32;100565.84;9900272;29;96750;-85
2023/08/13 02:05:51;;;;;;;;;;;16.90;97.80;;;15.78;93.99;100564.22;9891158;29;96827;-85
2023/08/13 02:10:54;;;;;;;;;;;16.90;97.70;;;15.68;94.23;100560.19;9894210;29;96735;-85
2023/08/13 02:16:05;;;;;;;;;;;16.80;98.10;;;15.65;94.84;100565.91;9895533;29;96650;-85
2023/08/13 02:21:08;;;;;;;;;;;16.70;97.90;;;15.69;94.73;100573.38;9905863;29;96644;-85
2023/08/13 02:26:14;;;;;;;;;;;16.80;98.10;;;15.64;94.81;100574.97;9900059;29;97901;-86
2023/08/13 02:31:17;;;;;;;;;;;16.70;98.70;;;15.62;95.14;100568.97;9887185;29;96693;-85
2023/08/13 02:36:21;;;;;;;;;;;16.70;98.00;;;15.63;94.71;100578.69;9878530;29;96707;-85
2023/08/13 02:41:24;;;;;;;;;;;16.80;98.70;;;15.54;94.61;100575.28;9877548;29;98442;-85
2023/08/13 02:46:27;;;;;;;;;;;16.70;98.80;;;15.45;94.91;100581.75;9890756;29;96739;-85
2023/08/13 02:51:31;;;;;;;;;;;16.60;98.60;;;15.42;95.20;100576.81;9892939;29;96663;-85
2023/08/13 02:56:34;;;;;;;;;;;16.50;99.00;;;15.40;95.55;100573.47;9883554;29;96750;-85
2023/08/13 03:01:38;;;;;;;;;;;16.50;99.50;;;15.24;95.77;100570.03;9894264;29;97338;-85
2023/08/13 03:06:42;;;;;;;;;;;16.40;99.70;;;15.19;96.54;100585.00;9906769;29;97764;-85
2023/08/13 03:11:46;;;;;;;;;;;16.30;99.90;;;15.17;97.16;100573.63;9893498;29;96611;-85
2023/08/13 03:16:49;;;;;;;;;;;16.30;99.90;;;15.09;97.49;100571.91;9886020;29;96690;-85
2023/08/13 03:21:53;;;;;;;;;;;16.20;99.90;;;15.09;97.92;100577.25;9896531;29;96717;-85
2023/08/13 03:26:56;;;;;;;;;;;16.20;99.90;;;15.04;98.44;100576.97;9929351;29;96489;-85
2023/08/13 03:32:00;;;;;;;;;;;16.10;99.90;;;15.02;98.93;100575.53;9891638;29;96792;-85
2023/08/13 03:37:03;;;;;;;;;;;16.10;99.90;;;14.99;99.14;100574.03;9908321;29;96656;-85
2023/08/13 03:42:07;;;;;;;;;;;16.10;99.90;;;14.97;99.29;100560.03;9878029;29;97916;-85
2023/08/13 03:47:10;;;;;;;;;;;16.20;99.90;;;14.85;99.85;100548.97;9885752;29;96597;-85
2023/08/13 03:52:14;;;;;;;;;;;16.10;99.90;;;14.89;99.54;100558.28;9882963;29;98564;-85
2023/08/13 03:57:18;;;;;;;;;;;16.10;99.90;;;14.89;99.66;100578.88;9889472;29;96687;-85
2023/08/13 04:02:21;;;;;;;;;;;16.00;99.90;;;14.86;100.00;100571.19;9899643;29;97395;-85
2023/08/13 04:07:25;;;;;;;;;;;16.00;99.90;;;14.86;99.95;100572.03;9887621;29;97022;-85
2023/08/13 04:12:28;;;;;;;;;;;16.00;99.90;;;14.86;100.00;100569.34;9890660;29;96744;-85
2023/08/13 04:17:32;;;;;;;;;;;16.00;99.90;;;14.86;100.00;100568.53;9915299;29;97980;-86
2023/08/13 04:22:35;;;;;;;;;;;16.00;99.90;;;14.85;100.00;100573.03;9885585;29;96702;-86
2023/08/13 04:27:39;;;;;;;;;;;16.00;99.90;;;14.96;100.00;100571.75;9888534;29;96647;-87
2023/08/13 04:32:52;;;;;;;;;;;16.10;99.90;;;15.14;100.00;100580.19;9901582;29;97519;-86
2023/08/13 04:37:56;;;;;;;;;;;16.20;99.90;;;15.25;100.00;100578.88;9895385;29;96860;-87
2023/08/13 04:42:59;;;;;;;;;;;16.40;99.90;;;15.37;100.00;100579.22;9882266;29;96650;-86
2023/08/13 04:48:03;;;;;;;;;;;16.50;99.90;;;15.51;100.00;100579.16;9888997;29;97873;-87
2023/08/13 04:53:07;;;;;;;;;;;16.70;99.90;;;15.67;100.00;100594.19;9892358;29;98402;-87
2023/08/13 04:58:10;;;;;;;;;;;16.80;99.90;;;15.78;100.00;100587.50;9897667;29;98575;-87
2023/08/13 05:03:14;;;;;;;;;;;16.90;99.90;;;16.01;100.00;100600.66;9890153;29;96875;-86
2023/08/13 05:08:17;;;;;;;;;;;17.10;99.90;;;16.16;100.00;100600.59;9878387;29;96846;-86
2023/08/13 05:13:21;;;;;;;;;;;17.30;99.90;;;16.32;100.00;100606.50;9906965;29;96685;-87
2023/08/13 05:18:24;;;;;;;;;;;17.40;99.90;;;16.50;100.00;100608.69;9917766;29;97010;-85
2023/08/13 05:23:28;;;;;;;;;;;17.60;99.90;;;16.65;100.00;100589.78;9929113;29;97376;-85
2023/08/13 05:28:31;;;;;;;;;;;17.80;99.90;;;16.85;100.00;100600.63;9923312;29;96795;-86
2023/08/13 05:33:35;;;;;;;;;;;18.00;99.90;;;17.09;99.36;100600.16;9900294;29;96794;-85
2023/08/13 05:38:39;;;;;;;;;;;18.10;99.90;;;17.37;98.80;100608.06;9926026;29;96836;-88
2023/08/13 05:43:42;;;;;;;;;;;18.40;99.90;;;17.59;97.45;100613.31;9898135;29;98094;-87
2023/08/13 05:48:46;;;;;;;;;;;18.70;99.90;;;17.83;96.40;100603.88;9899066;29;96928;-89
2023/08/13 05:53:49;;;;;;;;;;;18.90;99.90;;;18.02;94.64;100599.53;9923098;29;96690;-87
2023/08/13 05:58:53;;;;;;;;;;;19.10;99.90;;;18.27;93.68;100600.53;9927490;29;96513;-88
2023/08/13 06:03:56;;;;;;;;;;;19.40;99.90;;;18.50;93.17;100601.97;9915402;29;96597;-88
2023/08/13 06:09:00;;;;;;;;;;;19.60;99.90;;;18.67;90.80;100600.53;9911379;29;96820;-88
2023/08/13 06:14:04;;;;;;;;;;;19.80;99.90;;;18.96;90.11;100610.78;9904813;29;96623;-88
2023/08/13 06:19:08;;;;;;;;;;;20.00;99.90;;;19.21;88.81;100601.97;9898601;29;96799;-88
2023/08/13 06:24:12;;;;;;;;;;;20.30;99.90;;;19.44;85.87;100613.06;9893547;29;97111;-88
2023/08/13 06:29:15;;;;;;;;;;;20.50;99.90;;;19.66;84.72;100601.94;9899602;29;97455;-87
2023/08/13 06:34:19;;;;;;;;;;;20.80;99.50;;;19.93;83.78;100611.50;9913386;29;96642;-87
2023/08/13 06:39:23;;;;;;;;;;;21.00;98.90;;;20.18;82.37;100608.00;9905628;29;97487;-87
2023/08/13 06:44:27;;;;;;;;;;;21.30;98.70;;;20.40;79.72;100605.72;9895087;29;97408;-87
2023/08/13 06:49:31;;;;;;;;;;;21.50;98.10;;;20.63;79.83;100610.50;9890003;29;97076;-87
2023/08/13 06:54:34;;;;;;;;;;;21.80;97.80;;;20.84;77.07;100612.75;9888212;29;97395;-87
2023/08/13 06:59:38;;;;;;;;;;;22.00;97.10;;;21.09;76.19;100615.38;9880282;29;96692;-87
2023/08/13 07:04:41;;;;;;;;;;;22.20;96.70;;;21.30;75.65;100617.63;9901136;29;96735;-87
2023/08/13 07:09:45;;;;;;;;;;;22.40;96.50;;;21.48;73.49;100607.84;9872822;29;96491;-87
2023/08/13 07:14:48;;;;;;;;;;;22.60;95.70;;;21.69;72.38;100611.88;9894776;29;96697;-88
2023/08/13 07:19:53;;;;;;;;;;;22.80;95.50;;;22.00;72.01;100625.13;9849146;29;98606;-88
2023/08/13 07:24:56;;;;;;;;;;;23.10;95.20;;;22.29;69.88;100630.72;9847651;29;96627;-88
2023/08/13 07:30:01;;;;;;;;;;;23.40;94.20;;;22.40;66.35;100614.50;9847177;29;97590;-89
2023/08/13 07:35:06;;;;;;;;;;;23.60;93.20;;;22.65;66.65;100622.34;9836652;29;96655;-88
2023/08/13 07:40:12;;;;;;;;;;;23.80;93.10;;;22.90;65.73;100607.75;9837231;29;97023;-88
2023/08/13 07:45:16;;;;;;;;;;;24.00;92.80;;;23.14;63.28;100611.22;9850640;29;96711;-89
2023/08/13 07:50:19;;;;;;;;;;;24.30;92.00;;;23.41;62.75;100608.78;9856757;29;96640;-88
2023/08/13 07:55:23;;;;;;;;;;;24.50;91.50;;;23.62;59.05;100612.69;9843003;29;97449;-88
2023/08/13 08:00:27;;;;;;;;;;;24.70;90.90;;;23.87;59.61;100606.88;9852162;29;97009;-88
2023/08/13 08:05:30;;;;;;;;;;;25.00;90.60;;;24.06;59.45;100597.47;9847598;29;97610;-88
2023/08/13 08:10:34;;;;;;;;;;;25.20;90.10;;;24.29;59.62;100594.56;9848724;29;96682;-88
2023/08/13 08:15:38;;;;;;;;;;;25.40;90.00;;;24.50;57.98;100594.88;9844279;29;96931;-88
2023/08/13 08:20:42;;;;;;;;;;;25.60;88.90;;;24.71;57.49;100595.97;9862790;29;96764;-90
2023/08/13 08:25:45;;;;;;;;;;;25.80;86.70;;;24.91;56.37;100592.72;9871132;29;97587;-88
2023/08/13 08:30:49;;;;;;;;;;;26.00;86.60;;;25.08;55.84;100588.06;9864648;29;97696;-88
2023/08/13 08:35:52;;;;;;;;;;;26.20;85.40;;;25.35;54.65;100588.06;9864236;29;98520;-89
2023/08/13 08:40:58;;;;;;;;;;;26.40;82.40;;;25.49;53.63;100585.75;9892155;29;96650;-89
2023/08/13 08:46:02;;;;;;;;;;;26.60;82.50;;;25.63;52.71;100584.28;9858006;29;96674;-89
2023/08/13 08:51:07;;;;;;;;;;;26.70;80.60;;;25.91;53.30;100576.91;9854760;29;96691;-89
2023/08/13 08:56:10;;;;;;;;;;;27.00;80.50;;;26.09;51.18;100571.06;9867416;29;96660;-89
2023/08/13 09:01:14;;;;;;;;;;;27.20;79.80;;;26.26;50.18;100574.44;9867541;29;96735;-88
2023/08/13 09:06:18;;;;;;;;;;;27.40;79.30;;;26.27;48.82;100561.63;9909078;29;97503;-87
2023/08/13 09:11:26;;;;;;;;;;;27.40;77.80;;;26.49;49.94;100566.97;9900568;29;96858;-88
2023/08/13 09:16:30;;;;;;;;;;;27.50;78.00;;;26.59;49.49;100558.88;9871639;29;96747;-88
2023/08/13 09:21:34;;;;;;;;;;;27.70;77.40;;;26.84;48.85;100561.69;9855180;29;97640;-88
2023/08/13 09:26:38;;;;;;;;;;;27.90;75.70;;;27.07;48.14;100556.91;9887792;29;97610;-88
2023/08/13 09:31:42;;;;;;;;;;;28.10;74.40;;;27.23;46.10;100553.13;9883575;29;96655;-89
2023/08/13 09:36:45;;;;;;;;;;;28.20;71.70;;;27.36;45.87;100538.97;9876399;29;97389;-89
2023/08/13 09:41:50;;;;;;;;;;;28.40;71.70;;;27.57;46.02;100544.41;9878148;29;96729;-89
2023/08/13 09:46:58;;;;;;;;;;;28.50;71.80;;;27.77;44.75;100541.75;9867754;29;96812;-89
2023/08/13 09:52:08;;;;;;;;;;;28.80;71.20;;;27.87;44.21;100536.25;9876923;29;97607;-89
2023/08/13 09:57:16;;;;;;;;;;;28.90;69.80;;;28.09;44.28;100535.97;9861230;29;96691;-89
2023/08/13 10:02:21;;;;;;;;;;;29.10;68.40;;;28.10;43.19;100534.06;9888362;29;96614;-88
2023/08/13 10:07:25;;;;;;;;;;;29.20;69.50;;;28.11;41.46;100535.69;9881145;29;96819;-89
2023/08/13 10:12:30;;;;;;;;;;;29.20;66.70;;;28.18;42.84;100526.09;9876475;29;96741;-89
2023/08/13 10:17:34;;;;;;;;;;;29.20;66.40;;;28.24;42.34;100529.63;9873504;29;96736;-89
2023/08/13 10:22:40;;;;;;;;;;;29.30;66.50;;;28.45;42.77;100525.78;9860859;29;98159;-89
2023/08/13 10:27:44;;;;;;;;;;;29.40;66.20;;;28.47;41.47;100520.84;9855804;29;96728;-90
2023/08/13 10:32:50;;;;;;;;;;;29.50;65.50;;;28.60;40.88;100521.34;9869323;29;96959;-90
2023/08/13 10:38:00;;;;;;;;;;;29.70;63.50;;;28.67;42.02;100517.25;9878823;29;96942;-89
2023/08/13 10:43:04;;;;;;;;;;;29.90;65.50;;;28.99;41.38;100525.03;9876738;29;96834;-90
2023/08/13 10:48:08;;;;;;;;;;;30.10;64.10;;;29.02;39.06;100509.94;9866783;29;96857;-91
2023/08/13 10:53:22;;;;;;;;;;;30.20;63.30;;;29.15;38.77;100503.88;9871861;29;97848;-89
2023/08/13 10:58:34;;;;;;;;;;;30.30;60.70;;;29.20;39.11;100511.19;9900276;29;97825;-89
2023/08/13 11:03:54;;;;;;;;;;;30.30;62.50;;;29.14;37.67;100506.88;9881141;29;97373;-89
2023/08/13 11:08:58;;;;;;;;;;;30.30;61.40;;;29.17;37.83;100498.91;9888671;29;96897;-88
2023/08/13 11:14:01;;;;;;;;;;;30.30;60.60;;;29.29;38.64;100509.50;9869609;29;98168;-88
2023/08/13 11:19:05;;;;;;;;;;;30.30;60.10;;;29.51;37.63;100504.41;9875113;29;96693;-88
2023/08/13 11:24:12;;;;;;;;;;;30.50;59.30;;;29.57;37.07;100495.09;9859214;29;96862;-88
2023/08/13 11:29:20;;;;;;;;;;;30.60;58.60;;;29.64;37.56;100502.16;9875036;29;96687;-88
2023/08/13 11:34:24;;;;;;;;;;;30.70;58.90;;;29.78;38.19;100500.38;9852309;29;96658;-88
2023/08/13 11:39:28;;;;;;;;;;;30.80;59.90;;;29.95;38.77;100497.19;9872212;29;97846;-88
2023/08/13 11:44:32;;;;;;;;;;;30.90;60.30;;;30.15;38.18;100496.19;9890606;29;96661;-88
2023/08/13 11:49:42;;;;;;;;;;;31.20;60.30;;;30.30;37.88;100496.03;9885877;29;96656;-88
2023/08/13 11:54:45;;;;;;;;;;;31.30;59.00;;;30.33;37.83;100503.66;9861486;29;97239;-88
2023/08/13 11:59:49;;;;;;;;;;;31.40;59.10;;;30.37;37.86;100489.06;9849987;29;97753;-88
2023/08/13 12:04:54;;;;;;;;;;;31.40;59.00;;;30.29;36.08;100481.50;9875079;29;97856;-88
2023/08/13 12:09:57;;;;;;;;;;;31.30;58.20;;;30.36;37.69;100481.97;9895114;29;97134;-88
2023/08/13 12:15:01;;;;;;;;;;;31.40;58.80;;;30.35;37.39;100480.34;9897924;29;96882;-87
2023/08/13 12:20:06;;;;;;;;;;;31.40;58.60;;;30.39;36.57;100464.91;9872462;29;96726;-88
2023/08/13 12:25:09;;;;;;;;;;;31.50;57.80;;;30.46;36.70;100470.03;9869774;29;96759;-87
2023/08/13 12:30:13;;;;;;;;;;;31.50;57.20;;;30.47;36.36;100462.63;9894854;29;96966;-87
2023/08/13 12:35:17;;;;;;;;;;;31.50;57.50;;;30.64;36.85;100460.19;9861856;29;97829;-87
2023/08/13 12:40:22;;;;;;;;;;;31.60;58.40;;;30.81;36.14;100470.72;9863331;29;96708;-87
2023/08/13 12:45:25;;;;;;;;;;;31.80;57.70;;;30.91;34.61;100463.16;9869659;29;97213;-87
2023/08/13 12:50:29;;;;;;;;;;;31.90;55.10;;;30.82;36.96;100450.38;9870659;29;97420;-88
2023/08/13 12:55:33;;;;;;;;;;;31.80;57.80;;;31.07;36.27;100451.94;9868407;29;97654;-87
2023/08/13 13:00:36;;;;;;;;;;;32.10;56.90;;;31.19;34.65;100446.81;9862560;29;97330;-88
2023/08/13 13:05:40;;;;;;;;;;;32.40;54.90;;;31.43;35.22;100450.28;9867361;29;96741;-88
2023/08/13 13:10:44;;;;;;;;;;;32.60;56.40;;;31.58;34.95;100440.94;9889362;29;97060;-88
2023/08/13 13:15:47;;;;;;;;;;;32.80;56.00;;;31.86;34.16;100439.09;9860012;29;98086;-87
2023/08/13 13:20:52;;;;;;;;;;;33.20;55.00;;;32.00;33.23;100427.28;9855105;29;98377;-87
2023/08/13 13:25:55;;;;;;;;;;;33.50;54.80;;;32.06;32.38;100429.63;9896154;29;96772;-88
2023/08/13 13:31:00;;;;;;;;;;;33.70;51.70;;;32.00;32.66;100432.78;9904246;29;96808;-87
2023/08/13 13:36:07;;;;;;;;;;;33.80;51.90;;;32.19;32.21;100417.00;9876351;29;96667;-87
2023/08/13 13:41:10;;;;;;;;;;;33.80;51.90;;;32.30;32.58;100423.09;9887463;29;96802;-85
2023/08/13 13:46:14;;;;;;;;;;;33.60;52.30;;;32.28;32.12;100414.34;9885700;29;98137;-85
2023/08/13 13:51:18;;;;;;;;;;;33.50;52.70;;;32.43;32.06;100416.78;9876713;29;97391;-85
2023/08/13 13:56:21;;;;;;;;;;;33.40;52.20;;;32.30;31.27;100401.09;9888676;29;96749;-85
2023/08/13 14:01:25;;;;;;;;;;;33.30;52.50;;;32.06;32.80;100401.31;9872472;29;97356;-86
2023/08/13 14:06:28;;;;;;;;;;;33.10;52.90;;;32.14;33.05;100398.66;9868118;29;97387;-85
2023/08/13 14:11:32;;;;;;;;;;;33.20;52.90;;;32.33;32.76;100400.47;9879736;29;96765;-85
2023/08/13 14:16:36;;;;;;;;;;;33.40;52.80;;;32.37;32.86;100398.75;9884179;29;96749;-85
2023/08/13 14:21:39;;;;;;;;;;;33.80;52.90;;;32.68;32.19;100394.19;9877911;29;98390;-85
2023/08/13 14:26:43;;;;;;;;;;;34.30;52.70;;;32.98;31.06;100389.13;9866278;29;96741;-85
2023/08/13 14:31:47;;;;;;;;;;;34.80;51.30;;;33.28;30.08;100382.00;9863491;29;96654;-86
2023/08/13 14:36:50;;;;;;;;;;;35.40;50.60;;;33.40;29.92;100389.72;9871342;29;97913;-86
2023/08/13 14:41:54;;;;;;;;;;;35.60;48.70;;;33.74;29.74;100391.84;9880478;29;96646;-86
2023/08/13 14:46:57;;;;;;;;;;;35.90;48.40;;;34.11;29.75;100392.47;9893646;29;97992;-86
2023/08/13 14:52:01;;;;;;;;;;;36.20;48.70;;;34.32;28.44;100385.22;9869641;29;97013;-86
2023/08/13 14:57:05;;;;;;;;;;;36.70;48.10;;;34.42;28.70;100393.16;9882494;29;97370;-85
2023/08/13 15:02:08;;;;;;;;;;;36.70;49.00;;;34.92;28.74;100383.66;9911164;29;96971;-86
2023/08/13 15:07:12;;;;;;;;;;;37.10;48.50;;;35.14;27.40;100372.41;9892249;29;96759;-87
2023/08/13 15:12:15;;;;;;;;;;;37.40;46.70;;;35.50;26.84;100368.44;9899030;29;96621;-89
2023/08/13 15:17:34;;;;;;;;;;;37.60;48.20;;;36.05;26.54;100370.34;9880489;29;97939;-88
2023/08/13 15:22:38;;;;;;;;;;;37.80;46.00;;;36.31;26.06;100373.72;9875603;29;97497;-87
2023/08/13 15:27:41;;;;;;;;;;;37.90;46.00;;;36.34;25.93;100358.38;9871516;29;96636;-88
2023/08/13 15:32:45;;;;;;;;;;;38.00;45.80;;;36.27;26.50;100372.75;9876961;29;97270;-86
2023/08/13 15:37:49;;;;;;;;;;;38.00;47.10;;;36.34;26.87;100361.97;9890019;29;96748;-87
2023/08/13 15:42:52;;;;;;;;;;;38.00;47.20;;;36.37;26.02;100372.38;9880528;29;96639;-88
2023/08/13 15:47:56;;;;;;;;;;;38.10;47.20;;;36.07;25.49;100362.50;9855173;29;96651;-88
2023/08/13 15:53:00;;;;;;;;;;;37.70;44.90;;;35.65;26.02;100356.84;9866735;29;98838;-87
2023/08/13 15:58:09;;;;;;;;;;;37.30;44.40;;;35.38;27.47;100369.09;9891069;29;98166;-86
2023/08/13 16:03:14;;;;;;;;;;;36.90;46.40;;;35.30;27.27;100372.69;9851875;29;98372;-87
2023/08/13 16:08:18;;;;;;;;;;;36.80;45.90;;;35.38;27.92;100371.84;9864726;29;97061;-87
2023/08/13 16:13:21;;;;;;;;;;;36.70;46.80;;;35.18;26.97;100356.81;9876269;29;96730;-87
2023/08/13 16:18:25;;;;;;;;;;;36.50;45.90;;;35.03;27.05;100369.22;9868807;29;96942;-86
2023/08/13 16:23:29;;;;;;;;;;;36.30;45.90;;;34.89;27.80;100368.53;9864851;29;98625;-86
2023/08/13 16:28:33;;;;;;;;;;;36.20;46.80;;;34.64;29.11;100369.38;9886314;29;97839;-86
2023/08/13 16:33:39;;;;;;;;;;;35.90;47.10;;;34.49;30.44;100373.44;9894118;29;97061;-86
2023/08/13 16:38:43;;;;;;;;;;;35.70;48.20;;;34.07;30.17;100370.25;9889939;29;97030;-85
2023/08/13 16:43:47;;;;;;;;;;;35.40;48.20;;;33.75;30.57;100371.41;9869246;29;96735;-85
2023/08/13 16:48:56;;;;;;;;;;;35.10;48.70;;;33.36;32.10;100370.25;9896710;29;96684;-86
2023/08/13 16:54:00;;;;;;;;;;;34.70;49.40;;;32.70;33.63;100372.69;9877900;29;98241;-88
2023/08/13 16:59:04;;;;;;;;;;;34.00;50.70;;;31.76;34.94;100364.25;9860313;29;98301;-87
2023/08/13 17:04:07;;;;;;;;;;;33.20;51.90;;;30.79;36.42;100364.03;9888231;29;97816;-86
2023/08/13 17:09:11;;;;;;;;;;;32.10;53.00;;;30.02;38.07;100382.59;9901314;29;98682;-87
2023/08/13 17:14:16;;;;;;;;;;;31.30;54.20;;;29.29;40.31;100375.41;9876443;29;97842;-87
2023/08/13 17:19:29;;;;;;;;;;;30.50;55.30;;;28.63;42.28;100375.91;9863022;29;96775;-85
2023/08/13 17:24:33;;;;;;;;;;;29.90;56.20;;;28.06;43.80;100377.25;9868608;29;98134;-83
2023/08/13 17:29:36;;;;;;;;;;;29.20;57.50;;;27.54;45.04;100386.69;9865418;29;98690;-83
2023/08/13 17:34:43;;;;;;;;;;;28.80;58.00;;;27.07;46.56;100387.78;9870987;29;96747;-83
2023/08/13 17:39:46;;;;;;;;;;;28.20;59.10;;;26.61;47.33;100393.16;9871319;29;97328;-83
2023/08/13 17:44:50;;;;;;;;;;;27.80;59.70;;;26.21;48.53;100394.66;9870902;29;96697;-83
2023/08/13 17:49:55;;;;;;;;;;;27.40;60.90;;;25.87;48.84;100403.22;9871312;29;96916;-83
2023/08/13 17:54:59;;;;;;;;;;;27.00;62.00;;;25.51;49.67;100404.84;9869904;29;96655;-83
2023/08/13 18:00:03;;;;;;;;;;;26.60;61.60;;;25.23;49.99;100411.44;9868851;29;98946;-83
2023/08/13 18:05:08;;;;;;;;;;;26.30;62.20;;;24.96;50.45;100419.59;9870978;29;96730;-82
2023/08/13 18:10:11;;;;;;;;;;;26.10;63.10;;;24.76;50.59;100428.38;9868494;29;96896;-82
2023/08/13 18:15:15;;;;;;;;;;;25.80;62.90;;;24.64;51.96;100427.69;9860608;29;97332;-83
2023/08/13 18:20:19;;;;;;;;;;;25.60;64.70;;;24.48;52.52;100432.16;9859100;29;97507;-83
2023/08/13 18:25:22;;;;;;;;;;;25.50;65.10;;;24.40;54.38;100442.63;9856087;29;96727;-83
2023/08/13 18:30:26;;;;;;;;;;;25.30;66.90;;;24.25;54.61;100435.91;9846432;29;97501;-88
2023/08/13 18:35:30;;;;;;;;;;;25.20;66.50;;;24.11;56.60;100441.94;9865544;29;96652;-88
2023/08/13 18:40:33;;;;;;;;;;;25.00;67.90;;;23.96;57.66;100445.28;9845848;29;98311;-88
2023/08/13 18:45:36;;;;;;;;;;;24.90;68.40;;;23.85;58.18;100448.94;9860080;29;97620;-88
2023/08/13 18:50:40;;;;;;;;;;;24.80;68.80;;;23.69;58.81;100451.44;9861234;29;98418;-88
2023/08/13 18:55:50;;;;;;;;;;;24.60;68.30;;;23.59;59.66;100461.25;9849531;29;96752;-88
2023/08/13 19:00:53;;;;;;;;;;;24.50;69.90;;;23.47;59.70;100464.88;9858467;29;97153;-89
2023/08/13 19:05:57;;;;;;;;;;;24.40;69.30;;;23.35;60.49;100466.03;9861827;29;96703;-88
2023/08/13 19:11:00;;;;;;;;;;;24.30;71.50;;;23.26;60.41;100473.72;9860456;29;96753;-88
2023/08/13 19:16:04;;;;;;;;;;;24.20;70.70;;;23.15;60.50;100477.31;9858730;29;96956;-88
2023/08/13 19:21:07;;;;;;;;;;;24.10;71.80;;;23.08;60.93;100487.50;9856318;29;97342;-89
2023/08/13 19:26:11;;;;;;;;;;;24.00;71.40;;;22.96;61.57;100484.84;9860032;29;96963;-89
2023/08/13 19:31:14;;;;;;;;;;;23.90;72.00;;;22.86;61.67;100493.59;9844878;29;97028;-88
2023/08/13 19:36:18;;;;;;;;;;;23.80;72.60;;;22.78;61.39;100493.13;9862401;29;97496;-88
2023/08/13 19:41:21;;;;;;;;;;;23.70;72.90;;;22.62;61.41;100490.13;9832861;29;97334;-88
2023/08/13 19:46:25;;;;;;;;;;;23.60;72.70;;;22.53;62.33;100491.56;9852089;29;96617;-88
2023/08/13 19:51:28;;;;;;;;;;;23.40;72.40;;;22.38;63.20;100504.78;9860791;29;96592;-89
2023/08/13 19:56:32;;;;;;;;;;;23.40;72.00;;;22.25;64.20;100513.13;9858446;29;98637;-89
2023/08/13 20:01:35;;;;;;;;;;;23.30;74.70;;;21.99;65.92;100520.66;9856046;29;98107;-88
2023/08/13 20:06:39;;;;;;;;;;;23.00;77.80;;;21.60;67.06;100517.56;9857872;29;96859;-89
2023/08/13 20:11:42;;;;;;;;;;;22.60;78.60;;;21.42;67.27;100520.34;9832694;29;96750;-89
2023/08/13 20:16:46;;;;;;;;;;;22.30;78.30;;;21.29;67.88;100523.25;9858188;29;96649;-89
2023/08/13 20:21:51;;;;;;;;;;;22.20;77.50;;;21.17;67.91;100514.22;9853499;29;97209;-90
2023/08/13 20:26:55;;;;;;;;;;;22.20;78.50;;;21.15;67.88;100529.88;9854790;29;97292;-91
2023/08/13 20:31:58;;;;;;;;;;;22.10;78.00;;;21.11;67.55;100513.28;9856485;29;97841;-90
2023/08/13 20:37:01;;;;;;;;;;;22.00;78.00;;;21.08;68.05;100522.69;9828901;29;97081;-90
2023/08/13 20:42:05;;;;;;;;;;;22.10;79.00;;;20.97;68.64;100523.44;9852817;29;97640;-91
2023/08/13 20:47:08;;;;;;;;;;;21.90;77.80;;;20.95;69.06;100527.44;9835124;29;98365;-91
2023/08/13 20:52:12;;;;;;;;;;;21.90;78.80;;;20.78;69.96;100511.84;9857976;29;96637;-91
2023/08/13 20:57:15;;;;;;;;;;;21.80;79.70;;;20.76;70.77;100529.34;9843917;29;96625;-91
2023/08/13 21:02:19;;;;;;;;;;;21.70;80.80;;;20.58;71.85;100528.31;9849905;29;96968;-91
2023/08/13 21:07:24;;;;;;;;;;;21.50;81.40;;;20.45;72.16;100530.28;9849838;29;97653;-90
2023/08/13 21:12:27;;;;;;;;;;;21.30;82.00;;;20.26;72.97;100529.44;9850777;29;96795;-90
2023/08/13 21:17:31;;;;;;;;;;;21.20;83.50;;;20.14;73.24;100521.25;9834039;29;96783;-89
2023/08/13 21:22:34;;;;;;;;;;;21.00;82.70;;;20.03;73.78;100514.75;9857035;29;96730;-89
2023/08/13 21:27:38;;;;;;;;;;;20.90;83.60;;;19.87;75.20;100512.59;9856222;29;98533;-89
2023/08/13 21:32:42;;;;;;;;;;;20.80;84.70;;;19.73;75.91;100513.75;9855706;29;96710;-89
2023/08/13 21:37:46;;;;;;;;;;;20.70;85.40;;;19.66;76.98;100513.81;9857316;29;97011;-89
2023/08/13 21:42:50;;;;;;;;;;;20.60;86.30;;;19.49;77.50;100512.66;9856966;29;96950;-90
2023/08/13 21:47:54;;;;;;;;;;;20.40;86.60;;;19.45;78.05;100511.47;9842929;29;97283;-89
2023/08/13 21:52:58;;;;;;;;;;;20.40;86.60;;;19.39;77.28;100506.94;9847927;29;96537;-89
2023/08/13 21:58:01;;;;;;;;;;;20.30;85.80;;;19.35;77.61;100511.09;9863234;29;97212;-90
2023/08/13 22:03:05;;;;;;;;;;;20.30;86.50;;;19.32;78.83;100520.47;9859861;29;96827;-90
2023/08/13 22:08:10;;;;;;;;;;;20.20;87.70;;;19.30;78.41;100519.00;9862719;29;96654;-90
2023/08/13 22:13:14;;;;;;;;;;;20.20;86.70;;;19.29;77.92;100520.88;9861123;29;98609;-90
2023/08/13 22:18:17;;;;;;;;;;;20.20;86.30;;;19.32;77.60;100520.47;9861015;29;96971;-89
2023/08/13 22:23:21;;;;;;;;;;;20.30;86.70;;;19.35;78.34;100517.31;9847262;29;96710;-90
2023/08/13 22:28:25;;;;;;;;;;;20.30;86.50;;;19.32;79.70;100523.16;9848614;29;96731;-89
2023/08/13 22:33:28;;;;;;;;;;;20.30;88.30;;;19.24;79.70;100532.31;9856249;29;98800;-88
2023/08/13 22:38:31;;;;;;;;;;;20.20;88.10;;;19.18;79.68;100511.63;9847815;29;96720;-89
2023/08/13 22:43:35;;;;;;;;;;;20.20;86.50;;;19.20;80.53;100530.28;9862208;29;96599;-89
2023/08/13 22:48:39;;;;;;;;;;;20.20;86.90;;;19.17;80.41;100533.41;9862065;29;98495;-89
2023/08/13 22:53:42;;;;;;;;;;;20.20;88.20;;;19.09;80.72;100528.28;9831176;29;96631;-89
2023/08/13 22:58:46;;;;;;;;;;;20.10;90.10;;;18.89;81.04;100534.59;9860513;29;96707;-89
2023/08/13 23:03:49;;;;;;;;;;;19.90;89.90;;;18.86;81.14;100540.38;9844260;29;98604;-89